createdAt,value
2023-03-26T00:00:57.850Z,99175.72
2023-03-26T00:02:00.119Z,99171.97
2023-03-26T00:03:02.060Z,99178.37
2023-03-26T00:04:06.723Z,99168.34
2023-03-26T00:05:09.348Z,99166.66
2023-03-26T00:06:17.107Z,99171.91
2023-03-26T00:07:19.459Z,99175.84
2023-03-26T00:08:22.156Z,99174.88
2023-03-26T00:09:24.068Z,99161.69
2023-03-26T00:10:26.064Z,99175.56
2023-03-26T00:11:29.552Z,99173.53
2023-03-26T00:12:31.747Z,99172.53
2023-03-26T00:13:33.896Z,99172.59
2023-03-26T00:14:35.746Z,99164.69
2023-03-26T00:15:37.970Z,99166.06
2023-03-26T00:16:42.060Z,99167.44
2023-03-26T00:17:46.521Z,99164.75
2023-03-26T00:18:49.010Z,99165.94
2023-03-26T00:19:50.837Z,99155.06
2023-03-26T00:20:52.709Z,99152.97
2023-03-26T00:21:54.662Z,99157.69
2023-03-26T00:22:56.855Z,99156.53
2023-03-26T00:24:08.156Z,99154.06
2023-03-26T00:25:10.204Z,99144.94
2023-03-26T00:26:12.929Z,99145.78
2023-03-26T00:27:14.842Z,99148.75
2023-03-26T00:28:21.512Z,99154.50
2023-03-26T00:29:24.693Z,99148.56
2023-03-26T00:30:27.747Z,99149.44
2023-03-26T00:31:29.773Z,99152.78
2023-03-26T00:32:32.391Z,99146.19
2023-03-26T00:33:38.491Z,99142.75
2023-03-26T00:34:41.484Z,99141.78
2023-03-26T00:35:47.004Z,99146.69
2023-03-26T00:36:54.275Z,99154.34
2023-03-26T00:37:56.146Z,99158.44
2023-03-26T00:38:58.521Z,99153.72
2023-03-26T00:40:06.887Z,99145.59
2023-03-26T00:41:24.996Z,99144.09
2023-03-26T00:42:26.942Z,99147.69
2023-03-26T00:43:32.876Z,99147.69
2023-03-26T00:44:35.356Z,99147.34
2023-03-26T00:45:37.258Z,99147.09
2023-03-26T00:46:39.448Z,99154.56
2023-03-26T00:47:43.534Z,99153.34
2023-03-26T00:48:46.372Z,99148.19
2023-03-26T00:49:49.300Z,99153.78
2023-03-26T00:50:51.186Z,99147.37
2023-03-26T00:51:53.260Z,99154.06
2023-03-26T00:52:55.902Z,99152.59
2023-03-26T00:53:58.149Z,99152.47
2023-03-26T00:55:00.440Z,99144.09
2023-03-26T00:56:02.293Z,99153.91
2023-03-26T00:57:06.916Z,99155.22
2023-03-26T00:58:12.246Z,99147.25
2023-03-26T00:59:14.260Z,99156.38
2023-03-26T01:00:18.932Z,99145.50
2023-03-26T01:01:27.190Z,99149.50
2023-03-26T01:02:29.794Z,99155.28
2023-03-26T01:03:35.185Z,99145.13
2023-03-26T01:04:37.921Z,99145.31
2023-03-26T01:05:55.260Z,99141.81
2023-03-26T01:07:02.426Z,99139.94
2023-03-26T01:08:20.513Z,99141.47
2023-03-26T01:09:30.664Z,99144.78
2023-03-26T01:10:38.666Z,99136.81
2023-03-26T01:11:42.323Z,99140.00
2023-03-26T01:12:44.265Z,99136.12
2023-03-26T01:13:52.446Z,99141.88
2023-03-26T01:15:00.826Z,99135.16
2023-03-26T01:16:07.897Z,99131.44
2023-03-26T01:17:12.502Z,99132.16
2023-03-26T01:18:14.609Z,99133.16
2023-03-26T01:19:42.373Z,99135.78
2023-03-26T01:20:46.932Z,99133.03
2023-03-26T01:21:49.039Z,99138.13
2023-03-26T01:22:54.735Z,99135.16
2023-03-26T01:24:01.944Z,99139.13
2023-03-26T01:25:04.288Z,99139.28
2023-03-26T01:26:32.052Z,99132.25
2023-03-26T01:27:44.471Z,99135.94
2023-03-26T01:28:46.993Z,99136.81
2023-03-26T01:30:10.481Z,99134.09
2023-03-26T01:31:44.563Z,99139.25
2023-03-26T01:33:01.646Z,99140.28
2023-03-26T01:34:37.349Z,99140.44
2023-03-26T01:36:01.224Z,99135.78
2023-03-26T01:37:20.980Z,99146.06
2023-03-26T01:38:46.778Z,99148.66
2023-03-26T01:39:57.074Z,99144.78
2023-03-26T01:41:10.792Z,99138.97
2023-03-26T01:42:21.562Z,99140.13
2023-03-26T01:43:49.084Z,99139.91
2023-03-26T01:44:59.470Z,99142.16
2023-03-26T01:46:05.322Z,99141.09
2023-03-26T01:47:08.634Z,99143.59
2023-03-26T01:48:10.725Z,99155.81
2023-03-26T01:49:15.879Z,99145.50
2023-03-26T01:50:18.072Z,99145.59
2023-03-26T01:51:32.079Z,99147.06
2023-03-26T01:52:34.170Z,99135.91
2023-03-26T01:53:42.582Z,99147.22
2023-03-26T01:54:46.772Z,99142.91
2023-03-26T01:56:12.727Z,99145.06
2023-03-26T01:57:40.774Z,99147.97
2023-03-26T01:58:42.842Z,99138.75
2023-03-26T01:59:44.642Z,99147.09
2023-03-26T02:01:03.520Z,99143.59
2023-03-26T02:02:30.836Z,99136.19
2023-03-26T02:03:39.094Z,99136.78
2023-03-26T02:04:53.440Z,99133.59
2023-03-26T02:06:37.620Z,99140.34
2023-03-26T02:07:58.579Z,99137.69
2023-03-26T02:09:06.010Z,99130.69
2023-03-26T02:10:24.085Z,99130.41
2023-03-26T02:11:34.760Z,99133.88
2023-03-26T02:12:37.855Z,99136.88
2023-03-26T02:13:42.131Z,99134.78
2023-03-26T02:14:44.738Z,99132.53
2023-03-26T02:15:59.387Z,99132.37
2023-03-26T02:17:01.662Z,99133.56
2023-03-26T02:18:04.097Z,99137.31
2023-03-26T02:19:09.996Z,99140.94
2023-03-26T02:20:14.556Z,99142.31
2023-03-26T02:21:22.196Z,99144.19
2023-03-26T02:22:29.806Z,99147.13
2023-03-26T02:23:35.769Z,99143.84
2023-03-26T02:24:38.722Z,99145.75
2023-03-26T02:25:42.085Z,99148.06
2023-03-26T02:26:44.789Z,99137.59
2023-03-26T02:27:47.618Z,99144.75
2023-03-26T02:28:50.008Z,99136.50
2023-03-26T02:29:52.091Z,99149.25
2023-03-26T02:30:57.696Z,99149.41
2023-03-26T02:31:59.736Z,99158.78
2023-03-26T02:33:02.045Z,99159.38
2023-03-26T02:34:04.655Z,99156.44
2023-03-26T02:35:07.582Z,99152.72
2023-03-26T02:36:12.613Z,99158.38
2023-03-26T02:37:18.877Z,99155.22
2023-03-26T02:38:25.293Z,99147.53
2023-03-26T02:39:27.753Z,99148.75
2023-03-26T02:40:30.137Z,99152.72
2023-03-26T02:41:32.693Z,99152.84
2023-03-26T02:42:35.182Z,99156.09
2023-03-26T02:43:37.485Z,99150.03
2023-03-26T02:44:42.121Z,99146.19
2023-03-26T02:45:46.873Z,99156.84
2023-03-26T02:46:52.670Z,99147.97
2023-03-26T02:47:56.091Z,99149.34
2023-03-26T02:49:03.674Z,99146.97
2023-03-26T02:50:06.049Z,99157.16
2023-03-26T02:51:09.524Z,99157.63
2023-03-26T02:52:12.322Z,99147.66
2023-03-26T02:53:14.493Z,99155.50
2023-03-26T02:54:26.483Z,99146.47
2023-03-26T02:55:29.012Z,99163.19
2023-03-26T02:56:32.929Z,99153.66
2023-03-26T02:57:36.150Z,99157.38
2023-03-26T02:58:39.366Z,99150.62
2023-03-26T02:59:42.333Z,99150.03
2023-03-26T03:00:47.262Z,99148.47
2023-03-26T03:01:50.300Z,99158.59
2023-03-26T03:02:54.198Z,99152.19
2023-03-26T03:03:57.655Z,99153.69
2023-03-26T03:05:01.585Z,99150.50
2023-03-26T03:06:05.214Z,99145.84
2023-03-26T03:07:08.317Z,99146.16
2023-03-26T03:08:10.700Z,99148.47
2023-03-26T03:09:13.460Z,99143.31
2023-03-26T03:10:21.780Z,99137.44
2023-03-26T03:11:25.102Z,99145.88
2023-03-26T03:12:27.108Z,99142.38
2023-03-26T03:13:29.216Z,99147.13
2023-03-26T03:14:31.690Z,99138.66
2023-03-26T03:15:34.851Z,99147.94
2023-03-26T03:16:36.908Z,99144.16
2023-03-26T03:17:40.572Z,99148.75
2023-03-26T03:18:42.683Z,99145.75
2023-03-26T03:19:45.323Z,99149.34
2023-03-26T03:20:47.880Z,99148.75
2023-03-26T03:21:49.826Z,99143.59
2023-03-26T03:22:51.801Z,99151.19
2023-03-26T03:23:55.233Z,99148.00
2023-03-26T03:24:59.950Z,99149.16
2023-03-26T03:26:02.670Z,99147.09
2023-03-26T03:27:06.057Z,99144.69
2023-03-26T03:28:08.754Z,99149.53
2023-03-26T03:29:10.679Z,99154.75
2023-03-26T03:30:13.943Z,99147.37
2023-03-26T03:31:18.651Z,99153.25
2023-03-26T03:32:22.552Z,99154.31
2023-03-26T03:33:25.302Z,99149.69
2023-03-26T03:34:27.843Z,99153.13
2023-03-26T03:35:30.765Z,99154.31
2023-03-26T03:36:33.420Z,99150.59
2023-03-26T03:37:36.103Z,99150.94
2023-03-26T03:38:39.775Z,99159.81
2023-03-26T03:39:41.625Z,99157.38
2023-03-26T03:40:45.099Z,99151.75
2023-03-26T03:41:49.255Z,99147.53
2023-03-26T03:42:51.811Z,99152.91
2023-03-26T03:43:54.722Z,99146.22
2023-03-26T03:44:58.828Z,99150.44
2023-03-26T03:46:03.812Z,99144.44
2023-03-26T03:47:07.035Z,99153.81
2023-03-26T03:48:09.304Z,99157.81
2023-03-26T03:49:11.853Z,99148.91
2023-03-26T03:50:13.995Z,99151.47
2023-03-26T03:51:18.840Z,99147.81
2023-03-26T03:52:21.314Z,99153.78
2023-03-26T03:53:26.053Z,99148.69
2023-03-26T03:54:28.799Z,99151.47
2023-03-26T03:55:32.157Z,99154.44
2023-03-26T03:56:36.146Z,99153.31
2023-03-26T03:57:40.602Z,99161.88
2023-03-26T03:58:45.508Z,99162.84
2023-03-26T03:59:58.303Z,99160.31
2023-03-26T04:01:04.228Z,99159.69
2023-03-26T04:02:09.081Z,99166.34
2023-03-26T04:03:14.411Z,99164.72
2023-03-26T04:04:17.871Z,99166.72
2023-03-26T04:05:21.307Z,99166.06
2023-03-26T04:06:25.303Z,99165.09
2023-03-26T04:07:32.824Z,99167.06
2023-03-26T04:08:39.273Z,99167.06
2023-03-26T04:09:41.653Z,99162.31
2023-03-26T04:10:45.394Z,99167.09
2023-03-26T04:11:51.815Z,99167.50
2023-03-26T04:12:54.388Z,99165.50
2023-03-26T04:13:56.892Z,99167.50
2023-03-26T04:14:59.880Z,99161.25
2023-03-26T04:16:01.949Z,99157.81
2023-03-26T04:17:05.956Z,99168.22
2023-03-26T04:18:12.173Z,99165.88
2023-03-26T04:19:15.304Z,99165.69
2023-03-26T04:20:19.360Z,99164.72
2023-03-26T04:21:21.703Z,99161.50
2023-03-26T04:22:24.409Z,99170.28
2023-03-26T04:23:29.306Z,99167.44
2023-03-26T04:24:34.071Z,99173.25
2023-03-26T04:25:39.434Z,99173.88
2023-03-26T04:26:41.729Z,99174.88
2023-03-26T04:27:44.232Z,99181.09
2023-03-26T04:28:56.753Z,99180.75
2023-03-26T04:30:01.673Z,99189.38
2023-03-26T04:31:04.349Z,99186.25
2023-03-26T04:32:12.642Z,99189.84
2023-03-26T04:33:15.561Z,99189.28
2023-03-26T04:34:26.150Z,99185.03
2023-03-26T04:35:30.443Z,99182.34
2023-03-26T04:36:34.297Z,99183.16
2023-03-26T04:37:41.871Z,99191.56
2023-03-26T04:38:49.324Z,99188.59
2023-03-26T04:39:52.438Z,99185.44
2023-03-26T04:41:00.296Z,99184.44
2023-03-26T04:42:05.628Z,99185.06
2023-03-26T04:43:13.029Z,99189.44
2023-03-26T04:44:17.110Z,99188.66
2023-03-26T04:45:23.257Z,99184.47
2023-03-26T04:46:28.013Z,99174.06
2023-03-26T04:47:30.402Z,99165.91
2023-03-26T04:48:32.683Z,99168.91
2023-03-26T04:49:35.044Z,99172.28
2023-03-26T04:50:37.721Z,99169.50
2023-03-26T04:51:41.997Z,99174.88
2023-03-26T04:52:45.437Z,99176.09
2023-03-26T04:53:54.790Z,99176.06
2023-03-26T04:54:57.664Z,99188.06
2023-03-26T04:56:02.556Z,99180.25
2023-03-26T04:57:11.222Z,99177.84
2023-03-26T04:58:14.080Z,99175.88
2023-03-26T04:59:26.517Z,99171.06
2023-03-26T05:00:29.149Z,99170.28
2023-03-26T05:01:37.939Z,99172.69
2023-03-26T05:02:41.896Z,99182.66
2023-03-26T05:03:45.765Z,99177.28
2023-03-26T05:04:50.021Z,99175.88
2023-03-26T05:05:53.083Z,99178.28
2023-03-26T05:07:00.809Z,99182.09
2023-03-26T05:08:03.767Z,99183.66
2023-03-26T05:09:05.777Z,99180.88
2023-03-26T05:10:13.480Z,99180.00
2023-03-26T05:11:15.801Z,99177.16
2023-03-26T05:12:18.085Z,99178.31
2023-03-26T05:13:20.872Z,99173.81
2023-03-26T05:14:23.278Z,99169.00
2023-03-26T05:15:25.384Z,99171.97
2023-03-26T05:16:29.486Z,99163.50
2023-03-26T05:17:34.893Z,99166.50
2023-03-26T05:18:37.356Z,99171.75
2023-03-26T05:19:40.653Z,99177.28
2023-03-26T05:20:43.568Z,99167.47
2023-03-26T05:21:46.064Z,99178.44
2023-03-26T05:22:50.119Z,99165.56
2023-03-26T05:23:53.606Z,99174.03
2023-03-26T05:24:56.331Z,99172.84
2023-03-26T05:25:58.334Z,99176.41
2023-03-26T05:27:00.376Z,99167.12
2023-03-26T05:28:19.293Z,99166.59
2023-03-26T05:29:24.174Z,99169.53
2023-03-26T05:30:26.300Z,99177.53
2023-03-26T05:31:30.847Z,99167.38
2023-03-26T05:32:34.678Z,99163.97
2023-03-26T05:33:37.356Z,99156.53
2023-03-26T05:34:40.536Z,99159.88
2023-03-26T05:35:43.551Z,99157.53
2023-03-26T05:36:45.701Z,99162.66
2023-03-26T05:37:51.495Z,99162.09
2023-03-26T05:38:56.215Z,99167.00
2023-03-26T05:40:00.717Z,99167.91
2023-03-26T05:41:08.726Z,99164.91
2023-03-26T05:42:10.982Z,99165.59
2023-03-26T05:43:14.040Z,99161.75
2023-03-26T05:44:16.609Z,99162.59
2023-03-26T05:45:18.865Z,99162.47
2023-03-26T05:46:22.985Z,99161.03
2023-03-26T05:47:27.371Z,99159.09
2023-03-26T05:48:29.615Z,99156.75
2023-03-26T05:49:31.854Z,99155.56
2023-03-26T05:50:33.796Z,99158.78
2023-03-26T05:51:35.805Z,99159.69
2023-03-26T05:52:44.617Z,99155.00
2023-03-26T05:54:15.349Z,99163.28
2023-03-26T05:55:20.275Z,99165.94
2023-03-26T05:56:25.714Z,99159.47
2023-03-26T05:57:35.611Z,99168.09
2023-03-26T05:58:42.149Z,99162.41
2023-03-26T06:00:04.745Z,99164.19
2023-03-26T06:01:17.123Z,99158.06
2023-03-26T06:02:19.789Z,99165.59
2023-03-26T06:03:24.012Z,99161.38
2023-03-26T06:04:28.667Z,99165.25
2023-03-26T06:05:37.419Z,99167.66
2023-03-26T06:06:40.072Z,99174.72
2023-03-26T06:07:42.597Z,99170.84
2023-03-26T06:09:01.578Z,99171.03
2023-03-26T06:10:04.864Z,99163.19
2023-03-26T06:11:08.206Z,99170.72
2023-03-26T06:12:11.747Z,99171.22
2023-03-26T06:13:16.264Z,99168.66
2023-03-26T06:14:18.528Z,99173.47
2023-03-26T06:15:25.941Z,99172.16
2023-03-26T06:16:28.317Z,99162.44
2023-03-26T06:17:30.926Z,99161.81
2023-03-26T06:18:35.004Z,99164.03
2023-03-26T06:19:38.125Z,99163.41
2023-03-26T06:20:41.855Z,99165.81
2023-03-26T06:21:44.417Z,99158.59
2023-03-26T06:22:47.558Z,99154.94
2023-03-26T06:23:51.716Z,99156.63
2023-03-26T06:24:58.646Z,99153.97
2023-03-26T06:26:01.436Z,99150.28
2023-03-26T06:27:04.937Z,99148.28
2023-03-26T06:28:07.286Z,99154.16
2023-03-26T06:29:10.517Z,99146.34
2023-03-26T06:30:12.982Z,99153.25
2023-03-26T06:31:17.380Z,99153.94
2023-03-26T06:32:20.357Z,99152.78
2023-03-26T06:33:24.593Z,99154.31
2023-03-26T06:34:28.315Z,99155.00
2023-03-26T06:35:31.100Z,99152.16
2023-03-26T06:36:33.649Z,99159.06
2023-03-26T06:37:36.251Z,99152.84
2023-03-26T06:38:38.096Z,99158.88
2023-03-26T06:39:41.255Z,99159.22
2023-03-26T06:40:45.778Z,99162.56
2023-03-26T06:41:49.199Z,99157.75
2023-03-26T06:43:08.530Z,99154.97
2023-03-26T06:44:13.429Z,99158.72
2023-03-26T06:45:19.876Z,99170.34
2023-03-26T06:46:26.532Z,99159.25
2023-03-26T06:47:29.591Z,99165.44
2023-03-26T06:48:33.150Z,99165.28
2023-03-26T06:49:36.093Z,99159.88
2023-03-26T06:50:38.439Z,99163.59
2023-03-26T06:51:41.491Z,99157.47
2023-03-26T06:52:44.733Z,99158.19
2023-03-26T06:53:47.024Z,99156.28
2023-03-26T06:54:51.278Z,99154.22
2023-03-26T06:55:57.248Z,99158.50
2023-03-26T06:56:59.951Z,99162.37
2023-03-26T06:58:02.617Z,99165.44
2023-03-26T06:59:04.946Z,99162.06
2023-03-26T07:00:26.680Z,99166.97
2023-03-26T07:01:36.651Z,99165.97
2023-03-26T07:02:53.587Z,99169.56
2023-03-26T07:04:07.440Z,99160.34
2023-03-26T07:05:18.794Z,99166.53
2023-03-26T07:06:28.130Z,99158.97
2023-03-26T07:07:35.726Z,99158.19
2023-03-26T07:08:52.239Z,99162.47
2023-03-26T07:09:57.681Z,99156.81
2023-03-26T07:11:01.970Z,99163.16
2023-03-26T07:12:04.884Z,99161.47
2023-03-26T07:13:08.063Z,99160.06
2023-03-26T07:14:11.967Z,99161.75
2023-03-26T07:15:15.072Z,99163.41
2023-03-26T07:16:17.767Z,99157.78
2023-03-26T07:17:22.582Z,99160.19
2023-03-26T07:18:24.797Z,99158.69
2023-03-26T07:19:27.376Z,99156.84
2023-03-26T07:20:29.544Z,99159.34
2023-03-26T07:21:31.907Z,99161.53
2023-03-26T07:22:35.369Z,99153.41
2023-03-26T07:23:42.114Z,99153.94
2023-03-26T07:24:48.013Z,99148.56
2023-03-26T07:25:51.624Z,99155.19
2023-03-26T07:27:24.065Z,99153.63
2023-03-26T07:28:40.131Z,99151.72
2023-03-26T07:29:47.447Z,99145.75
2023-03-26T07:31:20.128Z,99152.06
2023-03-26T07:32:25.286Z,99151.59
2023-03-26T07:33:39.948Z,99156.34
2023-03-26T07:34:49.026Z,99155.00
2023-03-26T07:35:57.106Z,99144.47
2023-03-26T07:37:12.606Z,99143.41
2023-03-26T07:38:30.445Z,99136.94
2023-03-26T07:40:03.546Z,99144.22
2023-03-26T07:41:24.417Z,99145.16
2023-03-26T07:42:41.192Z,99138.06
2023-03-26T07:44:03.401Z,99145.22
2023-03-26T07:45:21.221Z,99143.81
2023-03-26T07:46:34.393Z,99146.84
2023-03-26T07:47:37.511Z,99151.75
2023-03-26T07:48:45.151Z,99158.09
2023-03-26T07:49:47.532Z,99151.38
2023-03-26T07:50:50.296Z,99148.53
2023-03-26T07:51:53.904Z,99149.97
2023-03-26T07:52:56.916Z,99144.66
2023-03-26T07:54:04.098Z,99140.94
2023-03-26T07:55:07.408Z,99145.38
2023-03-26T07:56:18.008Z,99140.06
2023-03-26T07:57:40.742Z,99134.19
2023-03-26T07:59:07.749Z,99137.13
2023-03-26T08:00:37.345Z,99135.97
2023-03-26T08:02:20.001Z,99143.34
2023-03-26T08:03:44.997Z,99150.94
2023-03-26T08:05:19.785Z,99145.97
2023-03-26T08:06:34.195Z,99150.06
2023-03-26T08:07:58.511Z,99146.66
2023-03-26T08:09:04.854Z,99146.41
2023-03-26T08:10:39.182Z,99149.41
2023-03-26T08:12:06.749Z,99133.78
2023-03-26T08:13:22.973Z,99141.19
2023-03-26T08:14:36.448Z,99143.03
2023-03-26T08:15:46.104Z,99143.16
2023-03-26T08:16:56.436Z,99148.59
2023-03-26T08:18:21.801Z,99148.97
2023-03-26T08:19:44.823Z,99139.47
2023-03-26T08:20:51.012Z,99140.00
2023-03-26T08:21:54.462Z,99145.56
2023-03-26T08:23:19.423Z,99142.00
2023-03-26T08:24:47.620Z,99144.56
2023-03-26T08:26:31.187Z,99143.88
2023-03-26T08:28:12.611Z,99142.47
2023-03-26T08:29:45.291Z,99129.78
2023-03-26T08:30:47.369Z,99122.47
2023-03-26T08:31:49.856Z,99133.78
2023-03-26T08:33:13.499Z,99133.84
2023-03-26T08:34:15.857Z,99138.69
2023-03-26T08:35:17.960Z,99128.75
2023-03-26T08:36:19.864Z,99129.47
2023-03-26T08:37:22.043Z,99134.31
2023-03-26T08:38:23.950Z,99127.72
2023-03-26T08:39:25.800Z,99121.28
2023-03-26T08:40:48.070Z,99126.09
2023-03-26T08:41:52.638Z,99128.00
2023-03-26T08:42:54.822Z,99123.28
2023-03-26T08:44:02.675Z,99122.50
2023-03-26T08:45:23.374Z,99128.03
2023-03-26T08:46:34.013Z,99125.41
2023-03-26T08:47:45.367Z,99126.09
2023-03-26T08:48:59.911Z,99129.94
2023-03-26T08:50:20.265Z,99136.47
2023-03-26T08:51:31.011Z,99128.66
2023-03-26T08:52:48.164Z,99129.25
2023-03-26T08:54:06.256Z,99130.16
2023-03-26T08:55:37.826Z,99129.19
2023-03-26T08:57:06.247Z,99130.16
2023-03-26T08:58:33.282Z,99127.34
2023-03-26T08:59:41.411Z,99123.28
2023-03-26T09:01:05.200Z,99132.00
2023-03-26T09:02:54.522Z,99135.44
2023-03-26T09:03:59.021Z,99130.38
2023-03-26T09:05:20.692Z,99126.91
2023-03-26T09:06:54.999Z,99129.00
2023-03-26T09:08:18.860Z,99131.63
2023-03-26T09:09:39.970Z,99121.44
2023-03-26T09:10:51.362Z,99118.84
2023-03-26T09:11:56.073Z,99125.41
2023-03-26T09:13:09.783Z,99124.37
2023-03-26T09:14:24.306Z,99121.84
2023-03-26T09:15:32.107Z,99116.66
2023-03-26T09:17:02.007Z,99121.47
2023-03-26T09:18:09.806Z,99120.00
2023-03-26T09:19:49.546Z,99111.88
2023-03-26T09:21:16.478Z,99117.13
2023-03-26T09:23:07.000Z,99113.12
2023-03-26T09:24:37.593Z,99118.88
2023-03-26T09:26:11.471Z,99113.50
2023-03-26T09:27:38.124Z,99112.19
2023-03-26T09:29:18.364Z,99104.25
2023-03-26T09:30:41.364Z,99105.75
2023-03-26T09:32:02.434Z,99108.56
2023-03-26T09:33:28.413Z,99100.88
2023-03-26T09:34:57.077Z,99098.59
2023-03-26T09:36:32.283Z,99109.53
2023-03-26T09:38:06.494Z,99097.88
2023-03-26T09:39:36.616Z,99104.94
2023-03-26T09:41:01.456Z,99101.00
2023-03-26T09:42:41.991Z,99102.25
2023-03-26T09:44:21.063Z,99111.78
2023-03-26T09:45:43.710Z,99099.31
2023-03-26T09:47:10.609Z,99095.47
2023-03-26T09:48:24.570Z,99094.87
2023-03-26T09:50:02.038Z,99096.13
2023-03-26T09:51:09.348Z,99092.47
2023-03-26T09:52:14.803Z,99097.38
2023-03-26T09:53:41.484Z,99100.88
2023-03-26T09:55:19.695Z,99093.97
2023-03-26T09:56:30.751Z,99093.28
2023-03-26T09:57:53.828Z,99088.66
2023-03-26T09:59:08.195Z,99086.84
2023-03-26T10:00:31.354Z,99085.03
2023-03-26T10:01:53.881Z,99081.25
2023-03-26T10:02:55.700Z,99085.03
2023-03-26T10:04:16.111Z,99085.97
2023-03-26T10:05:41.386Z,99087.72
2023-03-26T10:07:05.487Z,99084.53
2023-03-26T10:08:18.581Z,99079.16
2023-03-26T10:09:20.610Z,99081.34
2023-03-26T10:10:53.242Z,99073.94
2023-03-26T10:12:15.864Z,99078.41
2023-03-26T10:13:26.665Z,99068.88
2023-03-26T10:15:18.127Z,99071.34
2023-03-26T10:16:44.131Z,99067.44
2023-03-26T10:18:28.225Z,99061.69
2023-03-26T10:19:47.838Z,99055.97
2023-03-26T10:21:03.617Z,99051.00
2023-03-26T10:22:09.766Z,99053.44
2023-03-26T10:23:18.614Z,99043.06
2023-03-26T10:24:57.683Z,99049.00
2023-03-26T10:26:14.401Z,99034.63
2023-03-26T10:27:34.598Z,99031.94
2023-03-26T10:28:36.844Z,99039.47
2023-03-26T10:30:04.095Z,99043.16
2023-03-26T10:31:37.815Z,99044.91
2023-03-26T10:33:11.671Z,99036.78
2023-03-26T10:34:28.082Z,99038.31
2023-03-26T10:35:31.340Z,99034.72
2023-03-26T10:36:43.018Z,99029.84
2023-03-26T10:38:06.552Z,99028.78
2023-03-26T10:39:36.167Z,99027.03
2023-03-26T10:41:07.606Z,99029.66
2023-03-26T10:42:16.474Z,99032.44
2023-03-26T10:44:07.301Z,99036.69
2023-03-26T10:45:37.515Z,99030.34
2023-03-26T10:47:10.923Z,99033.31
2023-03-26T10:48:27.804Z,99028.84
2023-03-26T10:49:41.582Z,99033.84
2023-03-26T10:51:53.407Z,99032.53
2023-03-26T10:53:12.574Z,99054.66
2023-03-26T10:54:20.515Z,99069.81
2023-03-26T10:55:40.784Z,99062.44
2023-03-26T10:56:47.077Z,99067.69
2023-03-26T10:57:56.125Z,99065.47
2023-03-26T10:59:05.387Z,99066.03
2023-03-26T11:00:37.720Z,99060.03
2023-03-26T11:01:54.861Z,99059.00
2023-03-26T11:03:20.783Z,99040.81
2023-03-26T11:04:42.911Z,99040.94
2023-03-26T11:06:16.137Z,99031.81
2023-03-26T11:07:38.313Z,99034.72
2023-03-26T11:08:55.640Z,99039.28
2023-03-26T11:10:01.794Z,99034.97
2023-03-26T11:11:16.842Z,99033.97
2023-03-26T11:12:26.738Z,99026.63
2023-03-26T11:13:29.977Z,99029.31
2023-03-26T11:14:37.885Z,99024.38
2023-03-26T11:16:03.166Z,99029.66
2023-03-26T11:17:40.021Z,99006.19
2023-03-26T11:19:08.108Z,99008.78
2023-03-26T11:20:31.347Z,99000.66
2023-03-26T11:21:38.095Z,99003.78
2023-03-26T11:22:43.019Z,98999.72
2023-03-26T11:24:08.998Z,98991.66
2023-03-26T11:25:26.130Z,98981.59
2023-03-26T11:26:55.771Z,98978.84
2023-03-26T11:28:09.522Z,98984.12
2023-03-26T11:29:31.598Z,98986.81
2023-03-26T11:30:49.961Z,98986.91
2023-03-26T11:32:15.578Z,98982.78
2023-03-26T11:33:26.826Z,98973.25
2023-03-26T11:34:58.274Z,98976.59
2023-03-26T11:36:07.699Z,98973.63
2023-03-26T11:37:18.870Z,98975.00
2023-03-26T11:38:37.417Z,98974.00
2023-03-26T11:39:51.240Z,98967.03
2023-03-26T11:40:56.338Z,98969.91
2023-03-26T11:42:07.566Z,98963.41
2023-03-26T11:43:13.873Z,98965.75
2023-03-26T11:44:27.520Z,98954.34
2023-03-26T11:45:38.096Z,98950.19
2023-03-26T11:46:44.327Z,98954.25
2023-03-26T11:47:54.577Z,98949.19
2023-03-26T11:48:59.878Z,98953.25
2023-03-26T11:50:05.724Z,98936.47
2023-03-26T11:51:11.664Z,98941.16
2023-03-26T11:52:15.734Z,98927.59
2023-03-26T11:53:20.661Z,98933.22
2023-03-26T11:54:22.684Z,98932.38
2023-03-26T11:55:27.574Z,98930.34
2023-03-26T11:57:04.793Z,98933.87
2023-03-26T11:58:18.080Z,98920.97
2023-03-26T11:59:45.148Z,98913.56
2023-03-26T12:00:54.874Z,98911.87
2023-03-26T12:02:24.547Z,98912.66
2023-03-26T12:03:30.254Z,98918.00
2023-03-26T12:04:41.098Z,98917.47
2023-03-26T12:05:53.619Z,98904.44
2023-03-26T12:06:59.721Z,98908.56
2023-03-26T12:08:27.493Z,98900.62
2023-03-26T12:09:29.869Z,98894.25
2023-03-26T12:10:41.369Z,98899.25
2023-03-26T12:11:45.176Z,98895.41
2023-03-26T12:12:47.979Z,98899.66
2023-03-26T12:13:58.074Z,98891.19
2023-03-26T12:15:01.062Z,98891.47
2023-03-26T12:16:15.375Z,98890.81
2023-03-26T12:17:36.788Z,98888.78
2023-03-26T12:18:41.139Z,98888.34
2023-03-26T12:19:45.588Z,98883.53
2023-03-26T12:20:49.496Z,98869.81
2023-03-26T12:21:52.999Z,98869.41
2023-03-26T12:22:59.232Z,98872.66
2023-03-26T12:24:05.219Z,98870.41
2023-03-26T12:25:21.087Z,98866.75
2023-03-26T12:26:56.770Z,98866.19
2023-03-26T12:28:13.838Z,98859.84
2023-03-26T12:29:19.099Z,98852.97
2023-03-26T12:30:25.961Z,98855.69
2023-03-26T12:31:30.421Z,98854.56
2023-03-26T12:32:43.320Z,98865.00
2023-03-26T12:34:06.410Z,98857.78
2023-03-26T12:35:18.935Z,98846.62
2023-03-26T12:36:24.692Z,98846.50
2023-03-26T12:37:38.571Z,98842.06
2023-03-26T12:38:42.437Z,98845.72
2023-03-26T12:40:09.321Z,98838.16
2023-03-26T12:44:42.056Z,98838.59
2023-03-26T12:44:45.118Z,98833.59
2023-03-26T12:44:57.674Z,98827.78
2023-03-26T12:47:46.148Z,98828.09
2023-03-26T12:47:59.035Z,98819.13
2023-03-26T12:48:59.828Z,98816.66
2023-03-26T12:50:01.949Z,98814.94
2023-03-26T12:51:15.795Z,98811.63
2023-03-26T12:52:53.125Z,98806.78
2023-03-26T12:54:13.522Z,98809.56
2023-03-26T12:55:28.895Z,98807.75
2023-03-26T12:57:12.404Z,98811.94
2023-03-26T12:58:42.787Z,98805.03
2023-03-26T12:59:53.420Z,98806.25
2023-03-26T13:01:18.782Z,98800.34
2023-03-26T13:02:39.404Z,98799.97
2023-03-26T13:04:15.142Z,98797.19
2023-03-26T13:05:23.782Z,98800.38
2023-03-26T13:06:33.677Z,98799.44
2023-03-26T13:08:13.765Z,98795.63
2023-03-26T13:09:57.540Z,98795.06
2023-03-26T13:11:17.242Z,98794.03
2023-03-26T13:12:38.292Z,98793.09
2023-03-26T13:14:04.838Z,98796.09
2023-03-26T13:15:17.873Z,98797.13
2023-03-26T13:16:46.604Z,98789.97
2023-03-26T13:17:57.965Z,98784.31
2023-03-26T13:19:20.691Z,98777.56
2023-03-26T13:20:35.093Z,98773.03
2023-03-26T13:22:07.350Z,98770.97
2023-03-26T13:23:32.670Z,98757.97
2023-03-26T13:24:40.310Z,98759.50
2023-03-26T13:26:00.887Z,98752.56
2023-03-26T13:27:20.996Z,98749.91
2023-03-26T13:28:36.519Z,98743.63
2023-03-26T13:30:07.656Z,98747.72
2023-03-26T13:31:23.990Z,98737.81
2023-03-26T13:32:42.647Z,98735.34
2023-03-26T13:34:19.275Z,98738.63
2023-03-26T13:35:42.447Z,98739.09
2023-03-26T13:37:07.406Z,98729.47
2023-03-26T13:38:37.215Z,98736.66
2023-03-26T13:40:10.233Z,98735.25
2023-03-26T13:41:20.972Z,98724.75
2023-03-26T13:42:28.917Z,98732.12
2023-03-26T13:43:36.801Z,98728.78
2023-03-26T13:45:05.193Z,98724.50
2023-03-26T13:46:29.987Z,98730.94
2023-03-26T13:47:38.468Z,98717.53
2023-03-26T13:48:52.999Z,98725.22
2023-03-26T13:50:14.431Z,98718.09
2023-03-26T13:51:26.410Z,98709.34
2023-03-26T13:52:37.586Z,98715.28
2023-03-26T13:53:50.527Z,98711.56
2023-03-26T13:55:03.748Z,98715.38